Vandenberg AFB, California
Current Conditions -  °F | °C
As of 3:55 AM on Monday 24 Nov 2014 (Local Time) from KVBG Reporting Station
Clear Clear  
Wind Chill: 58°   Ceiling: Unl
Heat Index: 58°   Visibility: 10mi
Dew Point: 28°   Wind: 12mph
Humidity: 32%   Direction: 20°NNE
Pressure: 30.22"   Gusts: NA
Location:  34.7134°N, 120.557°W
Report Text: KVBG 241155Z AUTO 02010KT 10SM CLR 14/M02 A3022 RMK AO2 SLP225 T01441022 10150 20133 58003 TSNO $
Loading
Personal Weather Stations






























Interactive Weather Map New forecast layout! Learn more

10-Day Weather Forecast

Advertisements
Track Severe Weather on mobile